sensor_id;sensor_type;location;lat;lon;timestamp;P1;durP1;ratioP1;P2;durP2;ratioP2
7605;SDS011;3844;53.360;9.738;2023-01-10T00:01:17;32.70;;;9.38;;
7605;SDS011;3844;53.360;9.738;2023-01-10T00:03:17;27.30;;;9.13;;
7605;SDS011;3844;53.360;9.738;2023-01-10T00:05:18;25.48;;;9.05;;
7605;SDS011;3844;53.360;9.738;2023-01-10T00:07:19;29.52;;;9.63;;
7605;SDS011;3844;53.360;9.738;2023-01-10T00:09:20;23.35;;;8.63;;
7605;SDS011;3844;53.360;9.738;2023-01-10T00:11:20;24.45;;;8.50;;
7605;SDS011;3844;53.360;9.738;2023-01-10T00:13:40;22.42;;;8.23;;
7605;SDS011;3844;53.360;9.738;2023-01-10T00:15:41;22.13;;;8.73;;
7605;SDS011;3844;53.360;9.738;2023-01-10T00:17:42;27.73;;;8.38;;
7605;SDS011;3844;53.360;9.738;2023-01-10T00:19:43;22.00;;;8.20;;
7605;SDS011;3844;53.360;9.738;2023-01-10T00:21:44;19.10;;;7.75;;
7605;SDS011;3844;53.360;9.738;2023-01-10T00:23:45;27.42;;;9.13;;
7605;SDS011;3844;53.360;9.738;2023-01-10T00:25:47;23.77;;;8.32;;
7605;SDS011;3844;53.360;9.738;2023-01-10T00:27:49;29.92;;;9.07;;
7605;SDS011;3844;53.360;9.738;2023-01-10T00:29:56;22.33;;;8.30;;
7605;SDS011;3844;53.360;9.738;2023-01-10T00:32:00;24.92;;;8.63;;
7605;SDS011;3844;53.360;9.738;2023-01-10T00:34:01;24.75;;;8.38;;
7605;SDS011;3844;53.360;9.738;2023-01-10T00:36:02;28.33;;;8.35;;
7605;SDS011;3844;53.360;9.738;2023-01-10T00:38:04;24.23;;;8.60;;
7605;SDS011;3844;53.360;9.738;2023-01-10T00:40:06;23.33;;;8.38;;
7605;SDS011;3844;53.360;9.738;2023-01-10T00:42:09;25.63;;;8.65;;
7605;SDS011;3844;53.360;9.738;2023-01-10T00:44:29;21.08;;;7.88;;
7605;SDS011;3844;53.360;9.738;2023-01-10T00:46:30;27.13;;;8.68;;
7605;SDS011;3844;53.360;9.738;2023-01-10T00:48:31;23.35;;;8.27;;
7605;SDS011;3844;53.360;9.738;2023-01-10T00:50:32;23.65;;;8.07;;
7605;SDS011;3844;53.360;9.738;2023-01-10T00:52:32;21.65;;;8.00;;
7605;SDS011;3844;53.360;9.738;2023-01-10T00:54:33;23.48;;;8.07;;
7605;SDS011;3844;53.360;9.738;2023-01-10T00:56:34;20.38;;;7.60;;
7605;SDS011;3844;53.360;9.738;2023-01-10T00:58:35;28.05;;;8.68;;
7605;SDS011;3844;53.360;9.738;2023-01-10T01:00:36;21.02;;;7.60;;
7605;SDS011;3844;53.360;9.738;2023-01-10T01:02:37;20.98;;;7.75;;
7605;SDS011;3844;53.360;9.738;2023-01-10T01:04:38;26.98;;;8.52;;
7605;SDS011;3844;53.360;9.738;2023-01-10T01:06:39;34.83;;;10.38;;
7605;SDS011;3844;53.360;9.738;2023-01-10T01:08:43;25.42;;;9.60;;
7605;SDS011;3844;53.360;9.738;2023-01-10T01:10:44;25.90;;;9.15;;
7605;SDS011;3844;53.360;9.738;2023-01-10T01:12:45;26.30;;;9.15;;
7605;SDS011;3844;53.360;9.738;2023-01-10T01:14:46;25.55;;;9.85;;
7605;SDS011;3844;53.360;9.738;2023-01-10T01:16:47;26.17;;;9.68;;
7605;SDS011;3844;53.360;9.738;2023-01-10T01:18:48;33.10;;;11.48;;
7605;SDS011;3844;53.360;9.738;2023-01-10T01:20:52;25.15;;;10.00;;
7605;SDS011;3844;53.360;9.738;2023-01-10T01:22:55;24.45;;;8.80;;
7605;SDS011;3844;53.360;9.738;2023-01-10T01:24:56;24.98;;;9.80;;
7605;SDS011;3844;53.360;9.738;2023-01-10T01:26:57;24.35;;;9.50;;
7605;SDS011;3844;53.360;9.738;2023-01-10T01:28:57;25.92;;;9.80;;
7605;SDS011;3844;53.360;9.738;2023-01-10T01:30:58;23.75;;;9.20;;
7605;SDS011;3844;53.360;9.738;2023-01-10T01:32:59;25.00;;;9.85;;
7605;SDS011;3844;53.360;9.738;2023-01-10T01:35:00;25.08;;;10.23;;
7605;SDS011;3844;53.360;9.738;2023-01-10T01:37:00;27.98;;;10.55;;
7605;SDS011;3844;53.360;9.738;2023-01-10T01:39:01;24.83;;;10.30;;
7605;SDS011;3844;53.360;9.738;2023-01-10T01:41:03;26.95;;;9.77;;
7605;SDS011;3844;53.360;9.738;2023-01-10T01:43:26;32.10;;;10.95;;
7605;SDS011;3844;53.360;9.738;2023-01-10T01:45:37;28.92;;;11.52;;
7605;SDS011;3844;53.360;9.738;2023-01-10T01:47:58;28.80;;;10.77;;
7605;SDS011;3844;53.360;9.738;2023-01-10T01:52:06;30.77;;;11.18;;
7605;SDS011;3844;53.360;9.738;2023-01-10T01:54:11;27.83;;;11.80;;
7605;SDS011;3844;53.360;9.738;2023-01-10T01:56:26;26.42;;;11.07;;
7605;SDS011;3844;53.360;9.738;2023-01-10T01:58:38;25.80;;;10.60;;
7605;SDS011;3844;53.360;9.738;2023-01-10T02:00:47;28.02;;;11.18;;
7605;SDS011;3844;53.360;9.738;2023-01-10T02:02:51;32.08;;;13.15;;
7605;SDS011;3844;53.360;9.738;2023-01-10T02:07:01;33.28;;;12.30;;
7605;SDS011;3844;53.360;9.738;2023-01-10T02:11:41;29.08;;;11.57;;
7605;SDS011;3844;53.360;9.738;2023-01-10T02:13:42;26.98;;;11.40;;
7605;SDS011;3844;53.360;9.738;2023-01-10T02:15:45;27.52;;;11.88;;
7605;SDS011;3844;53.360;9.738;2023-01-10T02:17:46;28.95;;;10.98;;
7605;SDS011;3844;53.360;9.738;2023-01-10T02:19:50;31.92;;;11.82;;
7605;SDS011;3844;53.360;9.738;2023-01-10T02:37:44;27.45;;;9.73;;
7605;SDS011;3844;53.360;9.738;2023-01-10T02:40:10;28.63;;;9.45;;
7605;SDS011;3844;53.360;9.738;2023-01-10T02:47:14;26.45;;;8.75;;
7605;SDS011;3844;53.360;9.738;2023-01-10T02:49:15;24.63;;;8.43;;
7605;SDS011;3844;53.360;9.738;2023-01-10T02:51:23;25.45;;;8.88;;
7605;SDS011;3844;53.360;9.738;2023-01-10T02:53:33;27.52;;;8.50;;
7605;SDS011;3844;53.360;9.738;2023-01-10T02:58:15;25.77;;;8.40;;
7605;SDS011;3844;53.360;9.738;2023-01-10T03:00:45;25.77;;;7.97;;
7605;SDS011;3844;53.360;9.738;2023-01-10T03:03:22;27.10;;;8.15;;
7605;SDS011;3844;53.360;9.738;2023-01-10T03:10:36;23.83;;;7.93;;
7605;SDS011;3844;53.360;9.738;2023-01-10T03:14:56;19.05;;;6.97;;
7605;SDS011;3844;53.360;9.738;2023-01-10T03:16:59;24.85;;;6.40;;
7605;SDS011;3844;53.360;9.738;2023-01-10T03:19:07;20.48;;;5.95;;
7605;SDS011;3844;53.360;9.738;2023-01-10T03:21:14;15.48;;;5.38;;
7605;SDS011;3844;53.360;9.738;2023-01-10T03:23:17;15.98;;;5.63;;
7605;SDS011;3844;53.360;9.738;2023-01-10T03:25:22;22.15;;;5.72;;
7605;SDS011;3844;53.360;9.738;2023-01-10T03:30:34;18.90;;;5.45;;
7605;SDS011;3844;53.360;9.738;2023-01-10T03:32:22;11.10;;;4.68;;
7605;SDS011;3844;53.360;9.738;2023-01-10T03:34:26;11.35;;;4.28;;
7605;SDS011;3844;53.360;9.738;2023-01-10T03:36:36;14.82;;;5.10;;
7605;SDS011;3844;53.360;9.738;2023-01-10T03:40:56;17.92;;;5.20;;
7605;SDS011;3844;53.360;9.738;2023-01-10T03:43:11;19.58;;;5.45;;
7605;SDS011;3844;53.360;9.738;2023-01-10T03:48:12;14.95;;;5.47;;
7605;SDS011;3844;53.360;9.738;2023-01-10T03:52:19;16.50;;;5.60;;
7605;SDS011;3844;53.360;9.738;2023-01-10T03:54:20;16.30;;;5.63;;
7605;SDS011;3844;53.360;9.738;2023-01-10T03:56:21;19.48;;;5.53;;
7605;SDS011;3844;53.360;9.738;2023-01-10T03:58:21;17.25;;;5.40;;
7605;SDS011;3844;53.360;9.738;2023-01-10T04:00:22;24.20;;;6.30;;
7605;SDS011;3844;53.360;9.738;2023-01-10T04:02:28;27.67;;;6.07;;
7605;SDS011;3844;53.360;9.738;2023-01-10T04:04:30;25.80;;;6.60;;
7605;SDS011;3844;53.360;9.738;2023-01-10T04:06:31;24.02;;;5.68;;
7605;SDS011;3844;53.360;9.738;2023-01-10T04:08:32;19.98;;;5.50;;
7605;SDS011;3844;53.360;9.738;2023-01-10T04:10:33;20.73;;;5.25;;
7605;SDS011;3844;53.360;9.738;2023-01-10T04:12:34;20.75;;;5.75;;
7605;SDS011;3844;53.360;9.738;2023-01-10T04:14:35;18.40;;;4.95;;
7605;SDS011;3844;53.360;9.738;2023-01-10T04:16:36;22.02;;;5.22;;
7605;SDS011;3844;53.360;9.738;2023-01-10T04:18:37;21.13;;;4.80;;
7605;SDS011;3844;53.360;9.738;2023-01-10T04:20:38;18.38;;;5.00;;
7605;SDS011;3844;53.360;9.738;2023-01-10T04:22:38;15.32;;;4.50;;
7605;SDS011;3844;53.360;9.738;2023-01-10T04:24:39;17.95;;;4.50;;
7605;SDS011;3844;53.360;9.738;2023-01-10T04:26:40;18.08;;;4.68;;
7605;SDS011;3844;53.360;9.738;2023-01-10T04:28:41;18.42;;;4.70;;
7605;SDS011;3844;53.360;9.738;2023-01-10T04:30:42;20.58;;;4.93;;
7605;SDS011;3844;53.360;9.738;2023-01-10T04:32:43;23.63;;;5.25;;
7605;SDS011;3844;53.360;9.738;2023-01-10T04:34:43;18.73;;;5.10;;
7605;SDS011;3844;53.360;9.738;2023-01-10T04:36:45;21.55;;;4.75;;
7605;SDS011;3844;53.360;9.738;2023-01-10T04:38:45;23.92;;;5.18;;
7605;SDS011;3844;53.360;9.738;2023-01-10T04:40:55;19.10;;;4.40;;
7605;SDS011;3844;53.360;9.738;2023-01-10T04:42:56;19.17;;;5.43;;
7605;SDS011;3844;53.360;9.738;2023-01-10T04:44:57;20.05;;;5.25;;
7605;SDS011;3844;53.360;9.738;2023-01-10T04:46:58;18.38;;;5.25;;
7605;SDS011;3844;53.360;9.738;2023-01-10T04:48:59;19.98;;;5.40;;
7605;SDS011;3844;53.360;9.738;2023-01-10T04:50:59;19.45;;;5.22;;
7605;SDS011;3844;53.360;9.738;2023-01-10T04:53:00;17.73;;;5.32;;
7605;SDS011;3844;53.360;9.738;2023-01-10T04:55:01;22.80;;;5.93;;
7605;SDS011;3844;53.360;9.738;2023-01-10T04:57:02;20.02;;;5.90;;
7605;SDS011;3844;53.360;9.738;2023-01-10T04:59:08;19.65;;;5.80;;
7605;SDS011;3844;53.360;9.738;2023-01-10T05:01:10;22.88;;;5.90;;
7605;SDS011;3844;53.360;9.738;2023-01-10T05:03:13;23.42;;;5.63;;
7605;SDS011;3844;53.360;9.738;2023-01-10T05:05:16;23.35;;;6.07;;
7605;SDS011;3844;53.360;9.738;2023-01-10T05:07:17;25.95;;;6.35;;
7605;SDS011;3844;53.360;9.738;2023-01-10T05:09:18;22.30;;;6.18;;
7605;SDS011;3844;53.360;9.738;2023-01-10T05:11:18;25.10;;;5.97;;
7605;SDS011;3844;53.360;9.738;2023-01-10T05:13:19;28.42;;;7.13;;
7605;SDS011;3844;53.360;9.738;2023-01-10T05:15:20;22.75;;;6.28;;
7605;SDS011;3844;53.360;9.738;2023-01-10T05:17:22;20.75;;;5.53;;
7605;SDS011;3844;53.360;9.738;2023-01-10T05:19:24;24.40;;;6.53;;
7605;SDS011;3844;53.360;9.738;2023-01-10T05:21:25;22.13;;;5.53;;
7605;SDS011;3844;53.360;9.738;2023-01-10T05:23:26;25.45;;;6.13;;
7605;SDS011;3844;53.360;9.738;2023-01-10T05:25:27;21.15;;;5.68;;
7605;SDS011;3844;53.360;9.738;2023-01-10T05:27:28;23.90;;;5.68;;
7605;SDS011;3844;53.360;9.738;2023-01-10T05:29:29;25.63;;;6.22;;
7605;SDS011;3844;53.360;9.738;2023-01-10T05:31:31;22.08;;;5.18;;
7605;SDS011;3844;53.360;9.738;2023-01-10T05:33:32;18.23;;;5.55;;
7605;SDS011;3844;53.360;9.738;2023-01-10T05:35:33;17.67;;;5.60;;
7605;SDS011;3844;53.360;9.738;2023-01-10T05:37:34;19.40;;;4.80;;
7605;SDS011;3844;53.360;9.738;2023-01-10T05:39:35;21.73;;;5.57;;
7605;SDS011;3844;53.360;9.738;2023-01-10T05:41:36;24.60;;;5.43;;
7605;SDS011;3844;53.360;9.738;2023-01-10T05:43:36;18.48;;;5.30;;
7605;SDS011;3844;53.360;9.738;2023-01-10T05:45:37;19.92;;;6.63;;
7605;SDS011;3844;53.360;9.738;2023-01-10T05:47:38;24.35;;;5.78;;
7605;SDS011;3844;53.360;9.738;2023-01-10T05:49:39;22.92;;;5.80;;
7605;SDS011;3844;53.360;9.738;2023-01-10T05:51:39;21.60;;;6.03;;
7605;SDS011;3844;53.360;9.738;2023-01-10T05:53:41;21.00;;;5.28;;
7605;SDS011;3844;53.360;9.738;2023-01-10T05:55:42;22.67;;;5.93;;
7605;SDS011;3844;53.360;9.738;2023-01-10T05:57:43;19.23;;;5.55;;
7605;SDS011;3844;53.360;9.738;2023-01-10T05:59:43;22.63;;;5.20;;
7605;SDS011;3844;53.360;9.738;2023-01-10T06:01:45;16.90;;;5.13;;
7605;SDS011;3844;53.360;9.738;2023-01-10T06:03:45;21.75;;;5.50;;
7605;SDS011;3844;53.360;9.738;2023-01-10T06:05:47;21.40;;;5.07;;
7605;SDS011;3844;53.360;9.738;2023-01-10T06:07:48;20.17;;;5.10;;
7605;SDS011;3844;53.360;9.738;2023-01-10T06:09:49;19.77;;;4.82;;
7605;SDS011;3844;53.360;9.738;2023-01-10T06:11:50;18.08;;;5.05;;
7605;SDS011;3844;53.360;9.738;2023-01-10T06:13:51;19.42;;;5.85;;
7605;SDS011;3844;53.360;9.738;2023-01-10T06:15:54;20.02;;;6.10;;
7605;SDS011;3844;53.360;9.738;2023-01-10T06:17:55;23.75;;;6.53;;
7605;SDS011;3844;53.360;9.738;2023-01-10T06:19:56;24.23;;;6.22;;
7605;SDS011;3844;53.360;9.738;2023-01-10T06:21:57;19.00;;;5.72;;
7605;SDS011;3844;53.360;9.738;2023-01-10T06:23:58;20.27;;;5.55;;
7605;SDS011;3844;53.360;9.738;2023-01-10T06:25:58;19.35;;;5.00;;
7605;SDS011;3844;53.360;9.738;2023-01-10T06:27:59;13.93;;;4.82;;
7605;SDS011;3844;53.360;9.738;2023-01-10T06:30:00;22.85;;;6.10;;
7605;SDS011;3844;53.360;9.738;2023-01-10T06:32:01;24.02;;;6.40;;
7605;SDS011;3844;53.360;9.738;2023-01-10T06:34:01;25.33;;;6.18;;
7605;SDS011;3844;53.360;9.738;2023-01-10T06:36:02;26.13;;;6.22;;
7605;SDS011;3844;53.360;9.738;2023-01-10T06:38:03;24.70;;;6.50;;
7605;SDS011;3844;53.360;9.738;2023-01-10T06:40:04;23.73;;;6.22;;
7605;SDS011;3844;53.360;9.738;2023-01-10T06:42:05;17.58;;;5.57;;
7605;SDS011;3844;53.360;9.738;2023-01-10T06:44:06;27.70;;;6.80;;
7605;SDS011;3844;53.360;9.738;2023-01-10T06:46:07;27.30;;;6.13;;
7605;SDS011;3844;53.360;9.738;2023-01-10T06:48:08;23.65;;;6.45;;
7605;SDS011;3844;53.360;9.738;2023-01-10T06:50:10;25.25;;;6.10;;
7605;SDS011;3844;53.360;9.738;2023-01-10T06:52:11;26.13;;;7.38;;
7605;SDS011;3844;53.360;9.738;2023-01-10T06:54:12;26.35;;;7.10;;
7605;SDS011;3844;53.360;9.738;2023-01-10T06:56:13;27.40;;;6.40;;
7605;SDS011;3844;53.360;9.738;2023-01-10T06:58:13;29.55;;;6.90;;
7605;SDS011;3844;53.360;9.738;2023-01-10T07:00:17;23.55;;;6.28;;
7605;SDS011;3844;53.360;9.738;2023-01-10T07:02:18;24.58;;;6.05;;
7605;SDS011;3844;53.360;9.738;2023-01-10T07:04:19;24.25;;;6.55;;
7605;SDS011;3844;53.360;9.738;2023-01-10T07:06:20;25.98;;;6.47;;
7605;SDS011;3844;53.360;9.738;2023-01-10T07:08:21;23.27;;;6.55;;
7605;SDS011;3844;53.360;9.738;2023-01-10T07:10:22;23.65;;;6.45;;
7605;SDS011;3844;53.360;9.738;2023-01-10T07:12:23;20.65;;;6.18;;
7605;SDS011;3844;53.360;9.738;2023-01-10T07:14:23;21.38;;;5.57;;
7605;SDS011;3844;53.360;9.738;2023-01-10T07:16:24;29.73;;;7.18;;
7605;SDS011;3844;53.360;9.738;2023-01-10T07:18:25;31.85;;;7.28;;
7605;SDS011;3844;53.360;9.738;2023-01-10T07:20:26;27.25;;;6.93;;
7605;SDS011;3844;53.360;9.738;2023-01-10T07:22:27;29.67;;;7.13;;
7605;SDS011;3844;53.360;9.738;2023-01-10T07:24:28;23.55;;;6.25;;
7605;SDS011;3844;53.360;9.738;2023-01-10T07:26:29;27.33;;;6.70;;
7605;SDS011;3844;53.360;9.738;2023-01-10T07:28:32;30.58;;;6.88;;
7605;SDS011;3844;53.360;9.738;2023-01-10T07:30:33;32.60;;;7.00;;
7605;SDS011;3844;53.360;9.738;2023-01-10T07:32:34;24.00;;;6.50;;
7605;SDS011;3844;53.360;9.738;2023-01-10T07:34:35;30.33;;;6.85;;
7605;SDS011;3844;53.360;9.738;2023-01-10T07:36:36;24.27;;;6.47;;
7605;SDS011;3844;53.360;9.738;2023-01-10T07:38:37;28.65;;;7.45;;
7605;SDS011;3844;53.360;9.738;2023-01-10T07:40:38;27.05;;;6.30;;
7605;SDS011;3844;53.360;9.738;2023-01-10T07:42:39;25.65;;;6.47;;
7605;SDS011;3844;53.360;9.738;2023-01-10T07:44:39;24.02;;;6.35;;
7605;SDS011;3844;53.360;9.738;2023-01-10T07:46:40;25.17;;;6.30;;
7605;SDS011;3844;53.360;9.738;2023-01-10T07:48:41;25.55;;;6.53;;
7605;SDS011;3844;53.360;9.738;2023-01-10T07:50:42;19.60;;;5.28;;
7605;SDS011;3844;53.360;9.738;2023-01-10T07:52:42;24.90;;;6.18;;
7605;SDS011;3844;53.360;9.738;2023-01-10T07:54:43;23.55;;;6.32;;
7605;SDS011;3844;53.360;9.738;2023-01-10T07:56:44;21.15;;;6.60;;
7605;SDS011;3844;53.360;9.738;2023-01-10T07:58:46;23.83;;;6.07;;
7605;SDS011;3844;53.360;9.738;2023-01-10T08:00:47;19.33;;;5.72;;
7605;SDS011;3844;53.360;9.738;2023-01-10T08:02:51;20.60;;;5.82;;
7605;SDS011;3844;53.360;9.738;2023-01-10T08:04:53;29.52;;;6.63;;
7605;SDS011;3844;53.360;9.738;2023-01-10T08:06:54;25.55;;;7.00;;
7605;SDS011;3844;53.360;9.738;2023-01-10T08:08:55;30.35;;;6.57;;
7605;SDS011;3844;53.360;9.738;2023-01-10T08:10:56;23.75;;;5.80;;
7605;SDS011;3844;53.360;9.738;2023-01-10T08:12:58;22.80;;;6.20;;
7605;SDS011;3844;53.360;9.738;2023-01-10T08:14:59;26.75;;;6.50;;
7605;SDS011;3844;53.360;9.738;2023-01-10T08:17:00;23.48;;;6.13;;
7605;SDS011;3844;53.360;9.738;2023-01-10T08:19:01;28.75;;;6.43;;
7605;SDS011;3844;53.360;9.738;2023-01-10T08:21:01;23.98;;;5.95;;
7605;SDS011;3844;53.360;9.738;2023-01-10T08:23:02;22.33;;;5.82;;
7605;SDS011;3844;53.360;9.738;2023-01-10T08:25:03;24.35;;;5.40;;
7605;SDS011;3844;53.360;9.738;2023-01-10T08:27:04;27.80;;;5.97;;
7605;SDS011;3844;53.360;9.738;2023-01-10T08:29:05;24.85;;;5.90;;
7605;SDS011;3844;53.360;9.738;2023-01-10T08:31:06;23.70;;;5.65;;
7605;SDS011;3844;53.360;9.738;2023-01-10T08:33:08;23.20;;;5.40;;
7605;SDS011;3844;53.360;9.738;2023-01-10T08:35:10;27.23;;;6.53;;
7605;SDS011;3844;53.360;9.738;2023-01-10T08:37:12;30.45;;;8.20;;
7605;SDS011;3844;53.360;9.738;2023-01-10T08:39:13;28.60;;;8.32;;
7605;SDS011;3844;53.360;9.738;2023-01-10T08:41:14;32.83;;;10.60;;
7605;SDS011;3844;53.360;9.738;2023-01-10T08:43:15;30.65;;;11.63;;
7605;SDS011;3844;53.360;9.738;2023-01-10T08:45:15;30.35;;;7.80;;
7605;SDS011;3844;53.360;9.738;2023-01-10T08:47:16;24.50;;;7.30;;
7605;SDS011;3844;53.360;9.738;2023-01-10T08:49:17;26.77;;;7.78;;
7605;SDS011;3844;53.360;9.738;2023-01-10T08:51:18;26.88;;;6.78;;
7605;SDS011;3844;53.360;9.738;2023-01-10T08:53:18;21.50;;;6.57;;
7605;SDS011;3844;53.360;9.738;2023-01-10T08:55:19;22.13;;;6.43;;
7605;SDS011;3844;53.360;9.738;2023-01-10T08:57:20;21.83;;;6.65;;
7605;SDS011;3844;53.360;9.738;2023-01-10T08:59:21;17.25;;;5.72;;
7605;SDS011;3844;53.360;9.738;2023-01-10T09:01:22;26.33;;;6.80;;
7605;SDS011;3844;53.360;9.738;2023-01-10T09:03:22;22.98;;;6.40;;
7605;SDS011;3844;53.360;9.738;2023-01-10T09:05:23;19.75;;;6.50;;
7605;SDS011;3844;53.360;9.738;2023-01-10T09:07:25;22.35;;;6.25;;
7605;SDS011;3844;53.360;9.738;2023-01-10T09:09:26;21.80;;;7.35;;
7605;SDS011;3844;53.360;9.738;2023-01-10T09:11:26;18.33;;;6.53;;
7605;SDS011;3844;53.360;9.738;2023-01-10T09:13:27;23.40;;;7.15;;
7605;SDS011;3844;53.360;9.738;2023-01-10T09:15:34;26.23;;;7.75;;
7605;SDS011;3844;53.360;9.738;2023-01-10T09:17:37;21.63;;;6.75;;
7605;SDS011;3844;53.360;9.738;2023-01-10T09:19:38;21.33;;;7.72;;
7605;SDS011;3844;53.360;9.738;2023-01-10T09:21:38;24.02;;;9.73;;
7605;SDS011;3844;53.360;9.738;2023-01-10T09:23:39;26.83;;;9.55;;
7605;SDS011;3844;53.360;9.738;2023-01-10T09:25:40;23.00;;;8.68;;
7605;SDS011;3844;53.360;9.738;2023-01-10T09:27:41;24.42;;;8.85;;
7605;SDS011;3844;53.360;9.738;2023-01-10T09:29:41;26.25;;;9.38;;
7605;SDS011;3844;53.360;9.738;2023-01-10T09:31:42;22.48;;;8.52;;
7605;SDS011;3844;53.360;9.738;2023-01-10T09:33:43;27.13;;;9.15;;
7605;SDS011;3844;53.360;9.738;2023-01-10T09:35:46;32.53;;;8.10;;
7605;SDS011;3844;53.360;9.738;2023-01-10T09:37:46;28.58;;;8.00;;
7605;SDS011;3844;53.360;9.738;2023-01-10T09:39:47;24.50;;;8.07;;
7605;SDS011;3844;53.360;9.738;2023-01-10T09:48:23;24.30;;;7.90;;
7605;SDS011;3844;53.360;9.738;2023-01-10T09:50:34;20.80;;;7.07;;
7605;SDS011;3844;53.360;9.738;2023-01-10T09:53:01;19.00;;;6.38;;
7605;SDS011;3844;53.360;9.738;2023-01-10T09:57:22;20.70;;;6.60;;
7605;SDS011;3844;53.360;9.738;2023-01-10T09:59:24;23.95;;;7.07;;
7605;SDS011;3844;53.360;9.738;2023-01-10T10:01:31;24.05;;;6.63;;
7605;SDS011;3844;53.360;9.738;2023-01-10T10:06:11;22.10;;;6.30;;
7605;SDS011;3844;53.360;9.738;2023-01-10T10:08:14;23.55;;;6.97;;
7605;SDS011;3844;53.360;9.738;2023-01-10T10:10:25;23.30;;;6.95;;
7605;SDS011;3844;53.360;9.738;2023-01-10T10:15:23;22.42;;;6.65;;
7605;SDS011;3844;53.360;9.738;2023-01-10T10:17:33;26.20;;;7.20;;
7605;SDS011;3844;53.360;9.738;2023-01-10T10:26:32;21.58;;;6.50;;
7605;SDS011;3844;53.360;9.738;2023-01-10T10:36:17;19.88;;;6.35;;
7605;SDS011;3844;53.360;9.738;2023-01-10T10:38:27;30.27;;;7.10;;
7605;SDS011;3844;53.360;9.738;2023-01-10T10:40:32;29.52;;;7.35;;
7605;SDS011;3844;53.360;9.738;2023-01-10T10:42:37;19.15;;;6.40;;
7605;SDS011;3844;53.360;9.738;2023-01-10T10:46:51;23.92;;;6.93;;
7605;SDS011;3844;53.360;9.738;2023-01-10T10:48:57;29.27;;;7.03;;
7605;SDS011;3844;53.360;9.738;2023-01-10T10:53:24;22.48;;;6.45;;
7605;SDS011;3844;53.360;9.738;2023-01-10T10:55:28;22.27;;;6.20;;
7605;SDS011;3844;53.360;9.738;2023-01-10T10:57:34;22.13;;;6.32;;
7605;SDS011;3844;53.360;9.738;2023-01-10T10:59:38;20.05;;;6.72;;
7605;SDS011;3844;53.360;9.738;2023-01-10T11:01:40;29.13;;;6.75;;
7605;SDS011;3844;53.360;9.738;2023-01-10T11:03:52;23.42;;;6.55;;
7605;SDS011;3844;53.360;9.738;2023-01-10T11:05:58;25.98;;;6.05;;
7605;SDS011;3844;53.360;9.738;2023-01-10T11:08:01;20.75;;;6.22;;
7605;SDS011;3844;53.360;9.738;2023-01-10T11:10:16;20.50;;;5.93;;
7605;SDS011;3844;53.360;9.738;2023-01-10T11:12:37;27.90;;;6.90;;
7605;SDS011;3844;53.360;9.738;2023-01-10T11:14:45;21.77;;;6.30;;
7605;SDS011;3844;53.360;9.738;2023-01-10T11:18:52;22.77;;;6.15;;
7605;SDS011;3844;53.360;9.738;2023-01-10T11:21:11;27.23;;;6.93;;
7605;SDS011;3844;53.360;9.738;2023-01-10T11:23:25;23.23;;;6.78;;
7605;SDS011;3844;53.360;9.738;2023-01-10T11:25:28;22.92;;;6.35;;
7605;SDS011;3844;53.360;9.738;2023-01-10T11:27:30;23.27;;;7.57;;
7605;SDS011;3844;53.360;9.738;2023-01-10T11:29:38;21.40;;;6.72;;
7605;SDS011;3844;53.360;9.738;2023-01-10T11:31:44;30.67;;;9.57;;
7605;SDS011;3844;53.360;9.738;2023-01-10T11:33:46;21.45;;;7.50;;
7605;SDS011;3844;53.360;9.738;2023-01-10T11:38:01;28.80;;;9.52;;
7605;SDS011;3844;53.360;9.738;2023-01-10T11:44:24;28.92;;;8.40;;
7605;SDS011;3844;53.360;9.738;2023-01-10T11:48:44;22.77;;;7.47;;
7605;SDS011;3844;53.360;9.738;2023-01-10T11:50:51;22.15;;;7.80;;
7605;SDS011;3844;53.360;9.738;2023-01-10T11:52:54;26.10;;;8.00;;
7605;SDS011;3844;53.360;9.738;2023-01-10T11:54:57;22.45;;;8.30;;
7605;SDS011;3844;53.360;9.738;2023-01-10T11:57:03;27.30;;;8.98;;
7605;SDS011;3844;53.360;9.738;2023-01-10T11:59:13;24.00;;;7.68;;
7605;SDS011;3844;53.360;9.738;2023-01-10T12:03:38;29.13;;;7.60;;
7605;SDS011;3844;53.360;9.738;2023-01-10T12:05:39;17.38;;;7.07;;
7605;SDS011;3844;53.360;9.738;2023-01-10T12:07:52;19.58;;;6.90;;
7605;SDS011;3844;53.360;9.738;2023-01-10T12:10:17;25.27;;;8.18;;
7605;SDS011;3844;53.360;9.738;2023-01-10T12:14:33;22.83;;;7.15;;
7605;SDS011;3844;53.360;9.738;2023-01-10T12:16:35;21.48;;;7.40;;
7605;SDS011;3844;53.360;9.738;2023-01-10T12:18:37;26.02;;;7.97;;
7605;SDS011;3844;53.360;9.738;2023-01-10T12:20:44;23.42;;;8.05;;
7605;SDS011;3844;53.360;9.738;2023-01-10T12:22:51;20.23;;;7.85;;
7605;SDS011;3844;53.360;9.738;2023-01-10T12:24:56;26.23;;;8.18;;
7605;SDS011;3844;53.360;9.738;2023-01-10T12:27:00;25.42;;;8.48;;
7605;SDS011;3844;53.360;9.738;2023-01-10T12:29:14;23.50;;;7.97;;
7605;SDS011;3844;53.360;9.738;2023-01-10T12:31:19;25.65;;;8.25;;
7605;SDS011;3844;53.360;9.738;2023-01-10T12:35:35;25.77;;;9.30;;
7605;SDS011;3844;53.360;9.738;2023-01-10T12:40:42;28.75;;;8.98;;
7605;SDS011;3844;53.360;9.738;2023-01-10T12:42:51;25.45;;;8.77;;
7605;SDS011;3844;53.360;9.738;2023-01-10T12:45:15;27.75;;;9.23;;
7605;SDS011;3844;53.360;9.738;2023-01-10T12:52:32;28.60;;;8.50;;
7605;SDS011;3844;53.360;9.738;2023-01-10T12:54:44;24.67;;;9.68;;
7605;SDS011;3844;53.360;9.738;2023-01-10T12:56:47;18.08;;;8.02;;
7605;SDS011;3844;53.360;9.738;2023-01-10T12:58:49;24.73;;;8.05;;
7605;SDS011;3844;53.360;9.738;2023-01-10T13:00:56;20.88;;;8.27;;
7605;SDS011;3844;53.360;9.738;2023-01-10T13:02:59;20.65;;;7.45;;
7605;SDS011;3844;53.360;9.738;2023-01-10T13:05:05;23.98;;;8.07;;
7605;SDS011;3844;53.360;9.738;2023-01-10T13:07:13;22.92;;;7.63;;
7605;SDS011;3844;53.360;9.738;2023-01-10T13:09:17;27.80;;;8.65;;
7605;SDS011;3844;53.360;9.738;2023-01-10T13:11:20;23.42;;;8.25;;
7605;SDS011;3844;53.360;9.738;2023-01-10T13:13:34;21.80;;;8.00;;
7605;SDS011;3844;53.360;9.738;2023-01-10T13:15:46;28.42;;;8.23;;
7605;SDS011;3844;53.360;9.738;2023-01-10T13:22:21;23.33;;;6.93;;
7605;SDS011;3844;53.360;9.738;2023-01-10T13:24:23;25.67;;;7.80;;
7605;SDS011;3844;53.360;9.738;2023-01-10T13:28:53;27.17;;;6.55;;
7605;SDS011;3844;53.360;9.738;2023-01-10T13:30:59;20.50;;;6.85;;
7605;SDS011;3844;53.360;9.738;2023-01-10T13:33:05;21.38;;;6.90;;
7605;SDS011;3844;53.360;9.738;2023-01-10T13:35:16;18.23;;;5.90;;
7605;SDS011;3844;53.360;9.738;2023-01-10T13:37:22;22.35;;;6.60;;
7605;SDS011;3844;53.360;9.738;2023-01-10T13:39:33;22.08;;;6.82;;
7605;SDS011;3844;53.360;9.738;2023-01-10T13:44:25;20.70;;;6.28;;
7605;SDS011;3844;53.360;9.738;2023-01-10T13:48:30;19.50;;;6.47;;
7605;SDS011;3844;53.360;9.738;2023-01-10T13:52:41;24.45;;;6.35;;
7605;SDS011;3844;53.360;9.738;2023-01-10T13:54:53;21.38;;;6.00;;
7605;SDS011;3844;53.360;9.738;2023-01-10T13:56:56;22.92;;;6.65;;
7605;SDS011;3844;53.360;9.738;2023-01-10T13:58:57;22.88;;;6.40;;
7605;SDS011;3844;53.360;9.738;2023-01-10T14:01:24;20.02;;;6.25;;
7605;SDS011;3844;53.360;9.738;2023-01-10T14:03:49;21.48;;;6.13;;
7605;SDS011;3844;53.360;9.738;2023-01-10T14:05:52;22.00;;;6.03;;
7605;SDS011;3844;53.360;9.738;2023-01-10T14:07:53;22.50;;;6.47;;
7605;SDS011;3844;53.360;9.738;2023-01-10T14:10:02;22.75;;;6.50;;
7605;SDS011;3844;53.360;9.738;2023-01-10T14:15:51;18.08;;;6.13;;
7605;SDS011;3844;53.360;9.738;2023-01-10T14:17:24;20.20;;;5.70;;
7605;SDS011;3844;53.360;9.738;2023-01-10T14:19:31;15.02;;;5.10;;
7605;SDS011;3844;53.360;9.738;2023-01-10T14:21:38;21.45;;;6.30;;
7605;SDS011;3844;53.360;9.738;2023-01-10T14:23:42;22.45;;;5.97;;
7605;SDS011;3844;53.360;9.738;2023-01-10T14:25:52;22.33;;;6.20;;
7605;SDS011;3844;53.360;9.738;2023-01-10T14:27:55;21.30;;;6.10;;
7605;SDS011;3844;53.360;9.738;2023-01-10T14:29:58;17.42;;;5.63;;
7605;SDS011;3844;53.360;9.738;2023-01-10T14:32:00;23.05;;;5.68;;
7605;SDS011;3844;53.360;9.738;2023-01-10T14:34:03;23.70;;;6.20;;
7605;SDS011;3844;53.360;9.738;2023-01-10T14:36:14;21.45;;;6.18;;
7605;SDS011;3844;53.360;9.738;2023-01-10T14:38:28;22.10;;;5.65;;
7605;SDS011;3844;53.360;9.738;2023-01-10T14:40:42;20.90;;;5.38;;